sensor_id;sensor_type;location;lat;lon;timestamp;P1;durP1;ratioP1;P2;durP2;ratioP2
58214;SDS011;44011;52.218;1.480;2023-07-29T00:01:26;3.83;;;2.22;;
58214;SDS011;44011;52.218;1.480;2023-07-29T00:03:51;4.37;;;1.50;;
58214;SDS011;44011;52.218;1.480;2023-07-29T00:06:16;3.30;;;1.93;;
58214;SDS011;44011;52.218;1.480;2023-07-29T00:08:41;2.38;;;1.85;;
58214;SDS011;44011;52.218;1.480;2023-07-29T00:11:06;4.25;;;1.88;;
58214;SDS011;44011;52.218;1.480;2023-07-29T00:13:32;5.10;;;1.80;;
58214;SDS011;44011;52.218;1.480;2023-07-29T00:15:57;3.20;;;1.70;;
58214;SDS011;44011;52.218;1.480;2023-07-29T00:18:22;2.93;;;1.93;;
58214;SDS011;44011;52.218;1.480;2023-07-29T00:20:48;5.43;;;1.90;;
58214;SDS011;44011;52.218;1.480;2023-07-29T00:23:13;5.07;;;1.50;;
58214;SDS011;44011;52.218;1.480;2023-07-29T00:25:38;3.45;;;1.65;;
58214;SDS011;44011;52.218;1.480;2023-07-29T00:28:04;5.53;;;2.57;;
58214;SDS011;44011;52.218;1.480;2023-07-29T00:30:29;2.03;;;1.80;;
58214;SDS011;44011;52.218;1.480;2023-07-29T00:32:54;2.92;;;1.52;;
58214;SDS011;44011;52.218;1.480;2023-07-29T00:35:19;2.23;;;1.70;;
58214;SDS011;44011;52.218;1.480;2023-07-29T00:37:44;2.73;;;1.77;;
58214;SDS011;44011;52.218;1.480;2023-07-29T00:40:13;4.67;;;1.70;;
58214;SDS011;44011;52.218;1.480;2023-07-29T00:42:39;1.63;;;1.40;;
58214;SDS011;44011;52.218;1.480;2023-07-29T00:45:04;1.63;;;1.35;;
58214;SDS011;44011;52.218;1.480;2023-07-29T00:47:32;2.03;;;1.42;;
58214;SDS011;44011;52.218;1.480;2023-07-29T00:49:57;3.60;;;1.20;;
58214;SDS011;44011;52.218;1.480;2023-07-29T00:52:22;1.77;;;1.50;;
58214;SDS011;44011;52.218;1.480;2023-07-29T00:54:48;3.92;;;1.90;;
58214;SDS011;44011;52.218;1.480;2023-07-29T00:57:13;3.50;;;1.83;;
58214;SDS011;44011;52.218;1.480;2023-07-29T00:59:39;2.22;;;1.50;;
58214;SDS011;44011;52.218;1.480;2023-07-29T01:02:05;4.60;;;1.77;;
58214;SDS011;44011;52.218;1.480;2023-07-29T01:04:30;3.03;;;1.60;;
58214;SDS011;44011;52.218;1.480;2023-07-29T01:09:31;2.42;;;1.48;;
58214;SDS011;44011;52.218;1.480;2023-07-29T01:12:03;2.45;;;1.42;;
58214;SDS011;44011;52.218;1.480;2023-07-29T01:14:36;5.20;;;1.70;;
58214;SDS011;44011;52.218;1.480;2023-07-29T01:17:03;2.40;;;1.60;;
58214;SDS011;44011;52.218;1.480;2023-07-29T01:21:59;2.28;;;1.83;;
58214;SDS011;44011;52.218;1.480;2023-07-29T01:24:24;8.50;;;1.93;;
58214;SDS011;44011;52.218;1.480;2023-07-29T01:26:49;2.53;;;1.70;;
58214;SDS011;44011;52.218;1.480;2023-07-29T01:29:14;2.47;;;1.80;;
58214;SDS011;44011;52.218;1.480;2023-07-29T01:31:43;2.42;;;1.80;;
58214;SDS011;44011;52.218;1.480;2023-07-29T01:34:09;2.88;;;1.60;;
58214;SDS011;44011;52.218;1.480;2023-07-29T01:36:36;2.97;;;1.90;;
58214;SDS011;44011;52.218;1.480;2023-07-29T01:39:04;2.83;;;1.92;;
58214;SDS011;44011;52.218;1.480;2023-07-29T01:41:30;3.10;;;2.13;;
58214;SDS011;44011;52.218;1.480;2023-07-29T01:43:55;2.42;;;1.52;;
58214;SDS011;44011;52.218;1.480;2023-07-29T01:46:21;3.22;;;2.20;;
58214;SDS011;44011;52.218;1.480;2023-07-29T01:48:46;2.67;;;1.90;;
58214;SDS011;44011;52.218;1.480;2023-07-29T01:51:12;3.67;;;1.77;;
58214;SDS011;44011;52.218;1.480;2023-07-29T01:53:37;5.13;;;2.22;;
58214;SDS011;44011;52.218;1.480;2023-07-29T01:56:03;7.50;;;1.90;;
58214;SDS011;44011;52.218;1.480;2023-07-29T01:58:28;3.47;;;1.85;;
58214;SDS011;44011;52.218;1.480;2023-07-29T02:00:53;2.40;;;1.52;;
58214;SDS011;44011;52.218;1.480;2023-07-29T02:03:18;3.67;;;1.80;;
58214;SDS011;44011;52.218;1.480;2023-07-29T02:05:44;2.33;;;1.83;;
58214;SDS011;44011;52.218;1.480;2023-07-29T02:08:09;3.38;;;1.90;;
58214;SDS011;44011;52.218;1.480;2023-07-29T02:10:34;7.53;;;2.67;;
58214;SDS011;44011;52.218;1.480;2023-07-29T02:12:59;3.30;;;1.92;;
58214;SDS011;44011;52.218;1.480;2023-07-29T02:15:25;3.80;;;1.90;;
58214;SDS011;44011;52.218;1.480;2023-07-29T02:17:50;4.45;;;1.58;;
58214;SDS011;44011;52.218;1.480;2023-07-29T02:20:16;3.22;;;1.73;;
58214;SDS011;44011;52.218;1.480;2023-07-29T02:22:41;2.93;;;1.83;;
58214;SDS011;44011;52.218;1.480;2023-07-29T02:25:07;3.57;;;1.90;;
58214;SDS011;44011;52.218;1.480;2023-07-29T02:27:32;4.40;;;1.73;;
58214;SDS011;44011;52.218;1.480;2023-07-29T02:29:58;3.40;;;1.65;;
58214;SDS011;44011;52.218;1.480;2023-07-29T02:32:23;3.30;;;1.88;;
58214;SDS011;44011;52.218;1.480;2023-07-29T02:34:49;1.75;;;1.63;;
58214;SDS011;44011;52.218;1.480;2023-07-29T02:37:14;3.28;;;1.90;;
58214;SDS011;44011;52.218;1.480;2023-07-29T02:39:39;3.07;;;1.77;;
58214;SDS011;44011;52.218;1.480;2023-07-29T02:42:04;2.97;;;1.97;;
58214;SDS011;44011;52.218;1.480;2023-07-29T02:44:30;4.38;;;2.17;;
58214;SDS011;44011;52.218;1.480;2023-07-29T02:46:55;3.00;;;1.90;;
58214;SDS011;44011;52.218;1.480;2023-07-29T02:49:21;4.63;;;1.75;;
58214;SDS011;44011;52.218;1.480;2023-07-29T02:51:46;2.67;;;1.88;;
58214;SDS011;44011;52.218;1.480;2023-07-29T02:54:11;4.20;;;1.90;;
58214;SDS011;44011;52.218;1.480;2023-07-29T02:56:37;5.30;;;2.38;;
58214;SDS011;44011;52.218;1.480;2023-07-29T02:59:02;2.67;;;1.90;;
58214;SDS011;44011;52.218;1.480;2023-07-29T03:01:27;4.72;;;1.70;;
58214;SDS011;44011;52.218;1.480;2023-07-29T03:03:52;3.30;;;1.52;;
58214;SDS011;44011;52.218;1.480;2023-07-29T03:06:18;3.63;;;2.05;;
58214;SDS011;44011;52.218;1.480;2023-07-29T03:08:44;4.47;;;1.92;;
58214;SDS011;44011;52.218;1.480;2023-07-29T03:11:10;4.70;;;2.03;;
58214;SDS011;44011;52.218;1.480;2023-07-29T03:13:36;2.58;;;2.10;;
58214;SDS011;44011;52.218;1.480;2023-07-29T03:16:08;3.92;;;2.20;;
58214;SDS011;44011;52.218;1.480;2023-07-29T03:18:33;5.35;;;2.10;;
58214;SDS011;44011;52.218;1.480;2023-07-29T03:20:59;2.58;;;1.98;;
58214;SDS011;44011;52.218;1.480;2023-07-29T03:23:24;5.33;;;2.43;;
58214;SDS011;44011;52.218;1.480;2023-07-29T03:25:49;5.40;;;2.07;;
58214;SDS011;44011;52.218;1.480;2023-07-29T03:28:16;3.22;;;1.98;;
58214;SDS011;44011;52.218;1.480;2023-07-29T03:30:41;5.97;;;2.55;;
58214;SDS011;44011;52.218;1.480;2023-07-29T03:33:06;2.63;;;1.83;;
58214;SDS011;44011;52.218;1.480;2023-07-29T03:35:32;4.13;;;2.35;;
58214;SDS011;44011;52.218;1.480;2023-07-29T03:37:57;3.20;;;2.13;;
58214;SDS011;44011;52.218;1.480;2023-07-29T03:40:22;3.27;;;1.80;;
58214;SDS011;44011;52.218;1.480;2023-07-29T03:42:47;3.50;;;1.93;;
58214;SDS011;44011;52.218;1.480;2023-07-29T03:45:13;3.30;;;2.10;;
58214;SDS011;44011;52.218;1.480;2023-07-29T03:47:38;3.10;;;2.30;;
58214;SDS011;44011;52.218;1.480;2023-07-29T03:50:04;3.60;;;2.85;;
58214;SDS011;44011;52.218;1.480;2023-07-29T03:52:29;4.28;;;2.70;;
58214;SDS011;44011;52.218;1.480;2023-07-29T03:54:54;3.43;;;2.40;;
58214;SDS011;44011;52.218;1.480;2023-07-29T03:57:20;3.97;;;2.33;;
58214;SDS011;44011;52.218;1.480;2023-07-29T03:59:45;3.10;;;2.27;;
58214;SDS011;44011;52.218;1.480;2023-07-29T04:02:10;5.23;;;2.30;;
58214;SDS011;44011;52.218;1.480;2023-07-29T04:04:35;7.90;;;2.23;;
58214;SDS011;44011;52.218;1.480;2023-07-29T04:07:00;4.00;;;2.37;;
58214;SDS011;44011;52.218;1.480;2023-07-29T04:09:25;2.57;;;2.37;;
58214;SDS011;44011;52.218;1.480;2023-07-29T04:11:51;4.00;;;2.30;;
58214;SDS011;44011;52.218;1.480;2023-07-29T04:14:16;4.50;;;2.55;;
58214;SDS011;44011;52.218;1.480;2023-07-29T04:16:41;2.97;;;1.87;;
58214;SDS011;44011;52.218;1.480;2023-07-29T04:19:06;3.07;;;2.23;;
58214;SDS011;44011;52.218;1.480;2023-07-29T04:21:31;3.10;;;2.00;;
58214;SDS011;44011;52.218;1.480;2023-07-29T04:23:57;3.80;;;1.95;;
58214;SDS011;44011;52.218;1.480;2023-07-29T04:26:22;3.80;;;1.63;;
58214;SDS011;44011;52.218;1.480;2023-07-29T04:28:47;7.88;;;2.20;;
58214;SDS011;44011;52.218;1.480;2023-07-29T04:31:12;6.13;;;2.13;;
58214;SDS011;44011;52.218;1.480;2023-07-29T04:33:37;4.30;;;1.63;;
58214;SDS011;44011;52.218;1.480;2023-07-29T04:36:03;2.78;;;1.73;;
58214;SDS011;44011;52.218;1.480;2023-07-29T04:38:32;3.92;;;1.98;;
58214;SDS011;44011;52.218;1.480;2023-07-29T04:40:58;1.73;;;1.63;;
58214;SDS011;44011;52.218;1.480;2023-07-29T04:43:26;5.70;;;1.60;;
58214;SDS011;44011;52.218;1.480;2023-07-29T04:45:51;4.18;;;1.40;;
58214;SDS011;44011;52.218;1.480;2023-07-29T04:48:17;2.40;;;2.10;;
58214;SDS011;44011;52.218;1.480;2023-07-29T04:50:42;3.15;;;1.27;;
58214;SDS011;44011;52.218;1.480;2023-07-29T04:53:07;2.50;;;1.70;;
58214;SDS011;44011;52.218;1.480;2023-07-29T04:55:32;2.90;;;1.87;;
58214;SDS011;44011;52.218;1.480;2023-07-29T04:57:58;3.55;;;1.40;;
58214;SDS011;44011;52.218;1.480;2023-07-29T05:00:25;2.88;;;1.20;;
58214;SDS011;44011;52.218;1.480;2023-07-29T05:02:50;2.17;;;1.58;;
58214;SDS011;44011;52.218;1.480;2023-07-29T05:05:15;3.03;;;1.58;;
58214;SDS011;44011;52.218;1.480;2023-07-29T05:07:40;2.28;;;2.00;;
58214;SDS011;44011;52.218;1.480;2023-07-29T05:10:06;2.60;;;1.47;;
58214;SDS011;44011;52.218;1.480;2023-07-29T05:12:31;4.70;;;1.88;;
58214;SDS011;44011;52.218;1.480;2023-07-29T05:14:57;1.90;;;1.50;;
58214;SDS011;44011;52.218;1.480;2023-07-29T05:17:22;3.60;;;1.73;;
58214;SDS011;44011;52.218;1.480;2023-07-29T05:19:48;4.13;;;1.80;;
58214;SDS011;44011;52.218;1.480;2023-07-29T05:22:13;3.92;;;1.75;;
58214;SDS011;44011;52.218;1.480;2023-07-29T05:24:38;2.77;;;1.70;;
58214;SDS011;44011;52.218;1.480;2023-07-29T05:27:03;3.33;;;2.00;;
58214;SDS011;44011;52.218;1.480;2023-07-29T05:29:29;2.55;;;1.60;;
58214;SDS011;44011;52.218;1.480;2023-07-29T05:31:54;4.10;;;2.03;;
58214;SDS011;44011;52.218;1.480;2023-07-29T05:34:19;2.85;;;1.67;;
58214;SDS011;44011;52.218;1.480;2023-07-29T05:36:44;4.73;;;1.77;;
58214;SDS011;44011;52.218;1.480;2023-07-29T05:39:09;4.78;;;2.00;;
58214;SDS011;44011;52.218;1.480;2023-07-29T05:41:35;2.90;;;1.73;;
58214;SDS011;44011;52.218;1.480;2023-07-29T05:44:00;3.90;;;2.20;;
58214;SDS011;44011;52.218;1.480;2023-07-29T05:46:25;2.45;;;1.90;;
58214;SDS011;44011;52.218;1.480;2023-07-29T05:48:51;3.70;;;2.00;;
58214;SDS011;44011;52.218;1.480;2023-07-29T05:51:16;2.57;;;2.03;;
58214;SDS011;44011;52.218;1.480;2023-07-29T05:53:41;4.07;;;1.90;;
58214;SDS011;44011;52.218;1.480;2023-07-29T05:56:06;4.50;;;2.30;;
58214;SDS011;44011;52.218;1.480;2023-07-29T05:58:32;3.73;;;1.90;;
58214;SDS011;44011;52.218;1.480;2023-07-29T06:00:57;2.95;;;1.90;;
58214;SDS011;44011;52.218;1.480;2023-07-29T06:03:22;5.03;;;1.88;;
58214;SDS011;44011;52.218;1.480;2023-07-29T06:05:48;3.13;;;1.70;;
58214;SDS011;44011;52.218;1.480;2023-07-29T06:08:13;2.55;;;1.98;;
58214;SDS011;44011;52.218;1.480;2023-07-29T06:10:39;4.30;;;2.00;;
58214;SDS011;44011;52.218;1.480;2023-07-29T06:13:04;4.17;;;2.20;;
58214;SDS011;44011;52.218;1.480;2023-07-29T06:15:29;4.40;;;1.90;;
58214;SDS011;44011;52.218;1.480;2023-07-29T06:17:54;3.53;;;1.60;;
58214;SDS011;44011;52.218;1.480;2023-07-29T06:20:19;2.85;;;1.80;;
58214;SDS011;44011;52.218;1.480;2023-07-29T06:22:45;8.52;;;2.28;;
58214;SDS011;44011;52.218;1.480;2023-07-29T06:25:10;6.23;;;2.00;;
58214;SDS011;44011;52.218;1.480;2023-07-29T06:27:35;3.60;;;2.10;;
58214;SDS011;44011;52.218;1.480;2023-07-29T06:30:00;6.35;;;2.25;;
58214;SDS011;44011;52.218;1.480;2023-07-29T06:32:26;5.47;;;1.98;;
58214;SDS011;44011;52.218;1.480;2023-07-29T06:34:51;2.60;;;2.08;;
58214;SDS011;44011;52.218;1.480;2023-07-29T06:37:18;4.03;;;1.85;;
58214;SDS011;44011;52.218;1.480;2023-07-29T06:39:44;3.57;;;2.77;;
58214;SDS011;44011;52.218;1.480;2023-07-29T06:42:09;5.07;;;2.20;;
58214;SDS011;44011;52.218;1.480;2023-07-29T06:44:34;3.07;;;2.53;;
58214;SDS011;44011;52.218;1.480;2023-07-29T06:46:59;4.43;;;2.53;;
58214;SDS011;44011;52.218;1.480;2023-07-29T06:49:24;4.37;;;2.30;;
58214;SDS011;44011;52.218;1.480;2023-07-29T06:51:50;3.43;;;2.50;;
58214;SDS011;44011;52.218;1.480;2023-07-29T06:54:16;4.90;;;2.40;;
58214;SDS011;44011;52.218;1.480;2023-07-29T06:56:41;4.05;;;2.08;;
58214;SDS011;44011;52.218;1.480;2023-07-29T06:59:06;3.53;;;2.20;;
58214;SDS011;44011;52.218;1.480;2023-07-29T07:01:31;2.97;;;2.00;;
58214;SDS011;44011;52.218;1.480;2023-07-29T07:03:57;5.20;;;2.45;;
58214;SDS011;44011;52.218;1.480;2023-07-29T07:06:23;2.20;;;1.98;;
58214;SDS011;44011;52.218;1.480;2023-07-29T07:08:49;5.40;;;2.58;;
58214;SDS011;44011;52.218;1.480;2023-07-29T07:11:14;3.67;;;2.45;;
58214;SDS011;44011;52.218;1.480;2023-07-29T07:13:40;4.03;;;2.88;;
58214;SDS011;44011;52.218;1.480;2023-07-29T07:16:05;6.13;;;2.30;;
58214;SDS011;44011;52.218;1.480;2023-07-29T07:18:30;3.00;;;2.23;;
58214;SDS011;44011;52.218;1.480;2023-07-29T07:20:55;5.40;;;2.33;;
58214;SDS011;44011;52.218;1.480;2023-07-29T07:23:20;4.18;;;2.35;;
58214;SDS011;44011;52.218;1.480;2023-07-29T07:25:46;4.35;;;2.25;;
58214;SDS011;44011;52.218;1.480;2023-07-29T07:28:11;7.23;;;2.40;;
58214;SDS011;44011;52.218;1.480;2023-07-29T07:30:39;3.20;;;2.17;;
58214;SDS011;44011;52.218;1.480;2023-07-29T07:33:06;5.72;;;2.22;;
58214;SDS011;44011;52.218;1.480;2023-07-29T07:35:31;4.77;;;2.37;;
58214;SDS011;44011;52.218;1.480;2023-07-29T07:37:56;5.18;;;2.47;;
58214;SDS011;44011;52.218;1.480;2023-07-29T07:40:23;3.45;;;2.42;;
58214;SDS011;44011;52.218;1.480;2023-07-29T07:42:48;3.03;;;2.25;;
58214;SDS011;44011;52.218;1.480;2023-07-29T07:45:13;4.77;;;2.23;;
58214;SDS011;44011;52.218;1.480;2023-07-29T07:47:38;6.53;;;2.80;;
58214;SDS011;44011;52.218;1.480;2023-07-29T07:50:03;4.40;;;2.40;;
58214;SDS011;44011;52.218;1.480;2023-07-29T07:52:29;9.48;;;2.75;;
58214;SDS011;44011;52.218;1.480;2023-07-29T07:54:54;3.78;;;2.35;;
58214;SDS011;44011;52.218;1.480;2023-07-29T07:57:20;4.88;;;2.60;;
58214;SDS011;44011;52.218;1.480;2023-07-29T07:59:46;4.82;;;2.47;;
58214;SDS011;44011;52.218;1.480;2023-07-29T08:02:11;6.20;;;2.55;;
58214;SDS011;44011;52.218;1.480;2023-07-29T08:04:36;5.53;;;2.43;;
58214;SDS011;44011;52.218;1.480;2023-07-29T08:07:01;3.20;;;2.33;;
58214;SDS011;44011;52.218;1.480;2023-07-29T08:09:27;4.13;;;2.50;;
58214;SDS011;44011;52.218;1.480;2023-07-29T08:11:52;6.70;;;2.60;;
58214;SDS011;44011;52.218;1.480;2023-07-29T08:14:17;7.63;;;2.53;;
58214;SDS011;44011;52.218;1.480;2023-07-29T08:16:42;4.23;;;2.50;;
58214;SDS011;44011;52.218;1.480;2023-07-29T08:19:07;3.00;;;2.33;;
58214;SDS011;44011;52.218;1.480;2023-07-29T08:21:34;5.25;;;2.42;;
58214;SDS011;44011;52.218;1.480;2023-07-29T08:23:59;7.23;;;2.53;;
58214;SDS011;44011;52.218;1.480;2023-07-29T08:26:25;5.07;;;2.90;;
58214;SDS011;44011;52.218;1.480;2023-07-29T08:28:50;4.20;;;2.27;;
58214;SDS011;44011;52.218;1.480;2023-07-29T08:31:15;3.47;;;2.17;;
58214;SDS011;44011;52.218;1.480;2023-07-29T08:33:40;2.70;;;1.93;;
58214;SDS011;44011;52.218;1.480;2023-07-29T08:36:06;2.67;;;2.20;;
58214;SDS011;44011;52.218;1.480;2023-07-29T08:38:31;4.65;;;2.20;;
58214;SDS011;44011;52.218;1.480;2023-07-29T08:43:22;3.90;;;1.77;;
58214;SDS011;44011;52.218;1.480;2023-07-29T08:45:48;5.40;;;2.20;;
58214;SDS011;44011;52.218;1.480;2023-07-29T08:48:15;4.90;;;2.25;;
58214;SDS011;44011;52.218;1.480;2023-07-29T08:50:44;5.93;;;1.98;;
58214;SDS011;44011;52.218;1.480;2023-07-29T08:53:10;3.53;;;2.05;;
58214;SDS011;44011;52.218;1.480;2023-07-29T08:55:35;5.15;;;2.80;;
58214;SDS011;44011;52.218;1.480;2023-07-29T08:58:00;3.50;;;2.42;;
58214;SDS011;44011;52.218;1.480;2023-07-29T09:00:26;4.28;;;2.40;;
58214;SDS011;44011;52.218;1.480;2023-07-29T09:02:52;2.60;;;1.92;;
58214;SDS011;44011;52.218;1.480;2023-07-29T09:05:17;4.40;;;1.80;;
58214;SDS011;44011;52.218;1.480;2023-07-29T09:07:43;2.15;;;1.60;;
58214;SDS011;44011;52.218;1.480;2023-07-29T09:10:09;3.13;;;1.80;;
58214;SDS011;44011;52.218;1.480;2023-07-29T09:12:36;5.53;;;2.90;;
58214;SDS011;44011;52.218;1.480;2023-07-29T09:15:01;6.05;;;2.22;;
58214;SDS011;44011;52.218;1.480;2023-07-29T09:17:26;4.17;;;2.50;;
58214;SDS011;44011;52.218;1.480;2023-07-29T09:19:51;2.67;;;1.67;;
58214;SDS011;44011;52.218;1.480;2023-07-29T09:22:17;3.55;;;1.83;;
58214;SDS011;44011;52.218;1.480;2023-07-29T09:24:43;2.90;;;1.88;;
58214;SDS011;44011;52.218;1.480;2023-07-29T09:27:08;4.28;;;2.10;;
58214;SDS011;44011;52.218;1.480;2023-07-29T09:29:35;2.40;;;2.05;;
58214;SDS011;44011;52.218;1.480;2023-07-29T09:32:19;3.35;;;1.92;;
58214;SDS011;44011;52.218;1.480;2023-07-29T09:34:45;3.80;;;1.92;;
58214;SDS011;44011;52.218;1.480;2023-07-29T09:37:14;5.65;;;1.95;;
58214;SDS011;44011;52.218;1.480;2023-07-29T09:39:41;3.25;;;2.20;;
58214;SDS011;44011;52.218;1.480;2023-07-29T09:42:11;7.07;;;2.30;;
58214;SDS011;44011;52.218;1.480;2023-07-29T09:44:36;2.83;;;1.90;;
58214;SDS011;44011;52.218;1.480;2023-07-29T09:47:01;3.60;;;2.15;;
58214;SDS011;44011;52.218;1.480;2023-07-29T09:49:26;3.77;;;2.13;;
58214;SDS011;44011;52.218;1.480;2023-07-29T09:51:53;2.93;;;2.43;;
58214;SDS011;44011;52.218;1.480;2023-07-29T09:54:20;4.20;;;2.13;;
58214;SDS011;44011;52.218;1.480;2023-07-29T09:56:45;1.80;;;1.70;;
58214;SDS011;44011;52.218;1.480;2023-07-29T09:59:12;2.80;;;1.85;;
58214;SDS011;44011;52.218;1.480;2023-07-29T10:01:38;4.03;;;2.22;;
58214;SDS011;44011;52.218;1.480;2023-07-29T10:04:03;3.33;;;1.88;;
58214;SDS011;44011;52.218;1.480;2023-07-29T10:06:29;2.67;;;1.70;;
58214;SDS011;44011;52.218;1.480;2023-07-29T10:08:54;1.30;;;1.20;;
58214;SDS011;44011;52.218;1.480;2023-07-29T10:11:20;2.72;;;1.40;;
58214;SDS011;44011;52.218;1.480;2023-07-29T10:13:45;2.22;;;1.80;;
58214;SDS011;44011;52.218;1.480;2023-07-29T10:16:11;3.13;;;1.70;;
58214;SDS011;44011;52.218;1.480;2023-07-29T10:18:36;4.20;;;1.40;;
58214;SDS011;44011;52.218;1.480;2023-07-29T10:21:02;1.75;;;1.45;;
58214;SDS011;44011;52.218;1.480;2023-07-29T10:23:35;3.53;;;1.40;;
58214;SDS011;44011;52.218;1.480;2023-07-29T10:26:03;2.15;;;1.90;;
58214;SDS011;44011;52.218;1.480;2023-07-29T10:28:29;3.08;;;1.38;;
58214;SDS011;44011;52.218;1.480;2023-07-29T10:30:55;3.05;;;1.50;;
58214;SDS011;44011;52.218;1.480;2023-07-29T10:33:21;2.72;;;1.40;;
58214;SDS011;44011;52.218;1.480;2023-07-29T10:35:46;4.25;;;1.73;;
58214;SDS011;44011;52.218;1.480;2023-07-29T10:38:11;7.40;;;2.08;;
58214;SDS011;44011;52.218;1.480;2023-07-29T10:43:33;3.63;;;1.63;;
58214;SDS011;44011;52.218;1.480;2023-07-29T10:46:14;2.38;;;1.65;;
58214;SDS011;44011;52.218;1.480;2023-07-29T10:48:41;1.60;;;1.50;;
58214;SDS011;44011;52.218;1.480;2023-07-29T10:56:26;6.72;;;1.50;;
58214;SDS011;44011;52.218;1.480;2023-07-29T10:58:51;2.22;;;1.50;;
58214;SDS011;44011;52.218;1.480;2023-07-29T11:01:26;2.97;;;1.50;;
58214;SDS011;44011;52.218;1.480;2023-07-29T11:04:01;1.83;;;1.70;;
58214;SDS011;44011;52.218;1.480;2023-07-29T11:09:51;3.38;;;1.80;;
58214;SDS011;44011;52.218;1.480;2023-07-29T11:15:02;2.78;;;1.70;;
58214;SDS011;44011;52.218;1.480;2023-07-29T11:17:28;3.88;;;1.95;;
58214;SDS011;44011;52.218;1.480;2023-07-29T11:19:54;3.63;;;1.90;;
58214;SDS011;44011;52.218;1.480;2023-07-29T11:22:21;1.85;;;1.75;;
58214;SDS011;44011;52.218;1.480;2023-07-29T11:24:46;2.10;;;1.80;;
58214;SDS011;44011;52.218;1.480;2023-07-29T11:27:11;3.13;;;1.30;;
58214;SDS011;44011;52.218;1.480;2023-07-29T11:29:37;3.10;;;1.67;;
58214;SDS011;44011;52.218;1.480;2023-07-29T11:32:02;2.67;;;1.73;;
58214;SDS011;44011;52.218;1.480;2023-07-29T11:34:33;2.13;;;1.77;;
58214;SDS011;44011;52.218;1.480;2023-07-29T11:36:59;2.10;;;1.58;;
58214;SDS011;44011;52.218;1.480;2023-07-29T11:39:24;2.77;;;1.73;;
58214;SDS011;44011;52.218;1.480;2023-07-29T11:41:49;3.10;;;1.50;;
58214;SDS011;44011;52.218;1.480;2023-07-29T11:44:17;4.43;;;1.57;;
58214;SDS011;44011;52.218;1.480;2023-07-29T11:46:43;2.28;;;1.80;;
58214;SDS011;44011;52.218;1.480;2023-07-29T11:49:08;3.58;;;1.80;;
58214;SDS011;44011;52.218;1.480;2023-07-29T11:51:33;1.90;;;1.70;;
58214;SDS011;44011;52.218;1.480;2023-07-29T11:53:59;3.08;;;1.55;;
58214;SDS011;44011;52.218;1.480;2023-07-29T11:56:24;2.42;;;1.67;;
58214;SDS011;44011;52.218;1.480;2023-07-29T11:58:50;2.20;;;1.55;;
58214;SDS011;44011;52.218;1.480;2023-07-29T12:01:15;1.10;;;1.00;;
58214;SDS011;44011;52.218;1.480;2023-07-29T12:03:40;1.63;;;1.23;;
58214;SDS011;44011;52.218;1.480;2023-07-29T12:06:06;2.95;;;1.20;;
58214;SDS011;44011;52.218;1.480;2023-07-29T12:08:31;2.97;;;1.30;;
58214;SDS011;44011;52.218;1.480;2023-07-29T12:10:57;4.00;;;1.50;;
58214;SDS011;44011;52.218;1.480;2023-07-29T12:13:25;1.10;;;1.00;;
58214;SDS011;44011;52.218;1.480;2023-07-29T12:15:50;2.00;;;1.50;;
58214;SDS011;44011;52.218;1.480;2023-07-29T12:18:16;2.20;;;1.40;;
58214;SDS011;44011;52.218;1.480;2023-07-29T12:20:41;2.67;;;1.77;;
58214;SDS011;44011;52.218;1.480;2023-07-29T12:23:06;2.77;;;1.50;;
58214;SDS011;44011;52.218;1.480;2023-07-29T12:25:33;1.63;;;1.20;;
58214;SDS011;44011;52.218;1.480;2023-07-29T12:28:07;1.92;;;1.45;;
58214;SDS011;44011;52.218;1.480;2023-07-29T12:30:32;2.70;;;1.63;;
58214;SDS011;44011;52.218;1.480;2023-07-29T12:32:57;3.03;;;1.30;;
58214;SDS011;44011;52.218;1.480;2023-07-29T12:35:23;2.35;;;1.77;;
58214;SDS011;44011;52.218;1.480;2023-07-29T12:37:58;1.67;;;1.48;;
58214;SDS011;44011;52.218;1.480;2023-07-29T12:40:23;4.18;;;1.65;;
58214;SDS011;44011;52.218;1.480;2023-07-29T12:42:49;3.53;;;1.73;;
58214;SDS011;44011;52.218;1.480;2023-07-29T12:45:16;2.30;;;1.58;;
58214;SDS011;44011;52.218;1.480;2023-07-29T12:47:41;2.13;;;1.55;;
58214;SDS011;44011;52.218;1.480;2023-07-29T12:50:06;2.90;;;1.50;;
58214;SDS011;44011;52.218;1.480;2023-07-29T12:52:32;2.35;;;1.60;;
58214;SDS011;44011;52.218;1.480;2023-07-29T12:54:57;2.50;;;1.50;;
58214;SDS011;44011;52.218;1.480;2023-07-29T12:57:22;1.77;;;1.37;;
58214;SDS011;44011;52.218;1.480;2023-07-29T12:59:47;1.97;;;1.40;;
58214;SDS011;44011;52.218;1.480;2023-07-29T13:02:12;2.93;;;1.80;;
58214;SDS011;44011;52.218;1.480;2023-07-29T13:04:37;3.03;;;1.40;;
58214;SDS011;44011;52.218;1.480;2023-07-29T13:07:03;1.70;;;1.60;;
58214;SDS011;44011;52.218;1.480;2023-07-29T13:09:28;2.33;;;1.63;;
58214;SDS011;44011;52.218;1.480;2023-07-29T13:11:53;3.07;;;1.60;;
58214;SDS011;44011;52.218;1.480;2023-07-29T13:14:18;2.53;;;1.60;;
58214;SDS011;44011;52.218;1.480;2023-07-29T13:16:44;3.05;;;1.58;;
58214;SDS011;44011;52.218;1.480;2023-07-29T13:19:09;5.00;;;1.80;;
58214;SDS011;44011;52.218;1.480;2023-07-29T13:21:34;3.07;;;1.60;;
58214;SDS011;44011;52.218;1.480;2023-07-29T13:23:59;2.83;;;1.87;;
58214;SDS011;44011;52.218;1.480;2023-07-29T13:26:24;5.00;;;1.60;;
58214;SDS011;44011;52.218;1.480;2023-07-29T13:28:49;5.37;;;1.40;;
58214;SDS011;44011;52.218;1.480;2023-07-29T13:31:15;4.47;;;2.00;;
58214;SDS011;44011;52.218;1.480;2023-07-29T13:33:40;2.17;;;1.53;;
58214;SDS011;44011;52.218;1.480;2023-07-29T13:36:05;3.63;;;1.50;;
58214;SDS011;44011;52.218;1.480;2023-07-29T13:38:30;2.10;;;1.20;;
58214;SDS011;44011;52.218;1.480;2023-07-29T13:40:56;3.65;;;1.20;;
58214;SDS011;44011;52.218;1.480;2023-07-29T13:43:21;2.05;;;1.10;;
58214;SDS011;44011;52.218;1.480;2023-07-29T13:45:46;1.08;;;0.98;;
58214;SDS011;44011;52.218;1.480;2023-07-29T13:48:13;1.17;;;1.08;;
58214;SDS011;44011;52.218;1.480;2023-07-29T13:50:39;1.80;;;0.90;;
58214;SDS011;44011;52.218;1.480;2023-07-29T13:53:04;3.77;;;1.17;;
58214;SDS011;44011;52.218;1.480;2023-07-29T13:55:29;2.70;;;1.10;;
58214;SDS011;44011;52.218;1.480;2023-07-29T13:57:54;2.07;;;1.10;;
58214;SDS011;44011;52.218;1.480;2023-07-29T14:00:19;2.03;;;1.00;;
58214;SDS011;44011;52.218;1.480;2023-07-29T14:02:45;1.85;;;0.90;;
58214;SDS011;44011;52.218;1.480;2023-07-29T14:05:10;2.13;;;1.10;;
58214;SDS011;44011;52.218;1.480;2023-07-29T14:07:36;2.08;;;0.80;;
58214;SDS011;44011;52.218;1.480;2023-07-29T14:10:01;2.50;;;0.90;;
58214;SDS011;44011;52.218;1.480;2023-07-29T14:12:27;1.35;;;1.20;;
58214;SDS011;44011;52.218;1.480;2023-07-29T14:14:52;3.67;;;0.80;;
58214;SDS011;44011;52.218;1.480;2023-07-29T14:17:17;1.47;;;0.90;;
58214;SDS011;44011;52.218;1.480;2023-07-29T14:19:42;2.87;;;1.10;;
58214;SDS011;44011;52.218;1.480;2023-07-29T14:22:07;3.33;;;1.10;;
58214;SDS011;44011;52.218;1.480;2023-07-29T14:24:33;2.40;;;1.50;;
58214;SDS011;44011;52.218;1.480;2023-07-29T14:26:58;1.70;;;1.20;;
58214;SDS011;44011;52.218;1.480;2023-07-29T14:29:23;1.80;;;1.20;;
58214;SDS011;44011;52.218;1.480;2023-07-29T14:31:48;2.70;;;1.13;;
58214;SDS011;44011;52.218;1.480;2023-07-29T14:34:13;2.13;;;0.90;;
58214;SDS011;44011;52.218;1.480;2023-07-29T14:36:39;4.50;;;1.47;;
58214;SDS011;44011;52.218;1.480;2023-07-29T14:39:04;2.90;;;1.90;;
58214;SDS011;44011;52.218;1.480;2023-07-29T14:41:30;2.38;;;1.25;;
58214;SDS011;44011;52.218;1.480;2023-07-29T14:43:55;2.78;;;0.98;;
58214;SDS011;44011;52.218;1.480;2023-07-29T14:46:20;2.25;;;1.27;;
58214;SDS011;44011;52.218;1.480;2023-07-29T14:48:45;5.13;;;1.07;;
58214;SDS011;44011;52.218;1.480;2023-07-29T14:51:12;0.98;;;0.80;;
58214;SDS011;44011;52.218;1.480;2023-07-29T14:53:37;1.15;;;0.90;;
58214;SDS011;44011;52.218;1.480;2023-07-29T14:56:02;3.27;;;1.07;;
58214;SDS011;44011;52.218;1.480;2023-07-29T14:58:27;3.33;;;0.97;;
58214;SDS011;44011;52.218;1.480;2023-07-29T15:00:52;2.30;;;0.93;;